createdAt,value
2023-04-29T00:05:06.964Z,8.40
2023-04-29T00:11:11.840Z,8.20
2023-04-29T00:17:14.320Z,8.10
2023-04-29T00:23:17.000Z,8.00
2023-04-29T00:29:19.489Z,8.00
2023-04-29T00:35:22.220Z,7.90
2023-04-29T00:41:25.165Z,7.80
2023-04-29T00:47:27.937Z,7.70
2023-04-29T00:53:30.952Z,7.60
2023-04-29T00:59:34.983Z,7.50
2023-04-29T01:05:37.371Z,7.50
2023-04-29T01:12:14.248Z,7.50
2023-04-29T01:18:21.207Z,7.40
2023-04-29T01:24:24.014Z,7.40
2023-04-29T01:30:48.181Z,7.20
2023-04-29T01:36:51.233Z,7.20
2023-04-29T01:43:02.245Z,7.10
2023-04-29T01:49:08.136Z,7.10
2023-04-29T01:55:11.989Z,7.00
2023-04-29T02:01:23.120Z,6.90
2023-04-29T02:07:25.644Z,6.80
2023-04-29T02:13:28.233Z,6.80
2023-04-29T02:19:30.788Z,6.80
2023-04-29T02:25:33.114Z,6.70
2023-04-29T02:31:35.866Z,6.60
2023-04-29T02:37:38.538Z,6.60
2023-04-29T02:43:41.251Z,6.60
2023-04-29T02:49:43.754Z,6.60
2023-04-29T02:55:47.636Z,6.50
2023-04-29T03:01:50.718Z,6.50
2023-04-29T03:07:53.143Z,6.40
2023-04-29T03:13:55.829Z,6.50
2023-04-29T03:19:58.168Z,6.50
2023-04-29T03:26:01.880Z,6.60
2023-04-29T03:32:05.110Z,6.60
2023-04-29T03:38:07.520Z,6.70
2023-04-29T03:44:11.623Z,6.90
2023-04-29T03:50:15.401Z,7.10
2023-04-29T03:56:17.956Z,7.40
2023-04-29T04:02:21.031Z,7.80
2023-04-29T04:08:23.668Z,8.20
2023-04-29T04:14:29.424Z,8.60
2023-04-29T04:20:32.266Z,8.90
2023-04-29T04:26:35.270Z,9.20
2023-04-29T04:32:44.248Z,9.50
2023-04-29T04:38:46.471Z,10.00
2023-04-29T04:44:49.090Z,10.30
2023-04-29T04:51:11.820Z,10.60
2023-04-29T04:57:14.417Z,11.00
2023-04-29T05:03:18.584Z,11.40
2023-04-29T05:09:21.257Z,11.80
2023-04-29T05:15:24.069Z,11.90
2023-04-29T05:21:30.429Z,12.60
2023-04-29T05:27:33.744Z,17.10
2023-04-29T05:33:37.169Z,17.50
2023-04-29T05:39:40.148Z,17.50
2023-04-29T05:45:49.111Z,17.70
2023-04-29T05:51:51.625Z,17.40
2023-04-29T05:57:54.142Z,22.10
2023-04-29T06:03:57.136Z,25.40
2023-04-29T06:09:59.732Z,26.30
2023-04-29T06:16:03.270Z,24.60
2023-04-29T06:22:08.728Z,24.80
2023-04-29T06:28:12.096Z,25.70
2023-04-29T06:34:14.598Z,27.30
2023-04-29T06:40:36.169Z,28.80
2023-04-29T06:47:01.917Z,26.50
2023-04-29T06:53:18.708Z,26.70
2023-04-29T06:59:21.080Z,25.60
2023-04-29T07:05:23.763Z,25.00
2023-04-29T07:11:28.040Z,27.30
2023-04-29T07:17:32.080Z,25.90
2023-04-29T07:23:35.081Z,25.60
2023-04-29T07:29:38.689Z,26.30
2023-04-29T07:35:43.809Z,26.70
2023-04-29T07:41:47.210Z,28.30
2023-04-29T07:47:49.927Z,27.60
2023-04-29T07:53:52.572Z,27.30
2023-04-29T07:59:55.218Z,27.60
2023-04-29T08:06:02.030Z,27.90
2023-04-29T08:12:04.683Z,29.10
2023-04-29T08:18:07.799Z,29.60
2023-04-29T08:24:10.149Z,30.20
2023-04-29T08:30:13.106Z,29.30
2023-04-29T08:36:15.537Z,28.40
2023-04-29T08:42:29.177Z,28.10
2023-04-29T08:48:32.254Z,28.30
2023-04-29T08:54:34.801Z,27.20
2023-04-29T09:00:37.806Z,28.00
2023-04-29T09:06:40.028Z,28.70
2023-04-29T09:12:42.331Z,29.20
2023-04-29T09:18:50.071Z,29.30
2023-04-29T09:24:52.960Z,28.60
2023-04-29T09:30:55.467Z,28.90
2023-04-29T09:36:59.653Z,28.80
2023-04-29T09:43:02.466Z,27.90
2023-04-29T09:49:22.907Z,27.40
2023-04-29T09:55:25.330Z,27.60
2023-04-29T10:01:28.852Z,28.20
2023-04-29T10:07:31.458Z,27.80
2023-04-29T10:13:36.371Z,27.80
2023-04-29T10:19:50.657Z,28.80
2023-04-29T10:25:53.853Z,28.80
2023-04-29T10:31:57.603Z,28.80
2023-04-29T10:38:02.194Z,28.30
2023-04-29T10:44:05.000Z,28.70
2023-04-29T10:50:07.426Z,28.50
2023-04-29T10:56:11.669Z,28.80
2023-04-29T11:02:15.703Z,27.60
2023-04-29T11:08:24.593Z,27.00
2023-04-29T11:14:43.494Z,25.90
2023-04-29T11:21:07.465Z,25.90
2023-04-29T11:27:09.948Z,25.60
2023-04-29T11:33:12.284Z,26.60
2023-04-29T11:39:14.520Z,27.30
2023-04-29T11:45:20.724Z,27.40
2023-04-29T11:51:23.228Z,26.50
2023-04-29T11:57:26.087Z,24.40
2023-04-29T12:03:28.549Z,24.30
2023-04-29T12:09:42.961Z,23.30
2023-04-29T12:15:46.932Z,22.50
2023-04-29T12:21:50.419Z,25.40
2023-04-29T12:27:52.610Z,26.90
2023-04-29T12:33:55.936Z,26.90
2023-04-29T12:39:58.579Z,27.90
2023-04-29T12:46:06.391Z,23.70
2023-04-29T12:52:10.957Z,20.90
2023-04-29T12:58:13.573Z,20.10
2023-04-29T13:04:16.892Z,24.00
2023-04-29T13:10:19.225Z,24.60
2023-04-29T13:16:22.920Z,24.10
2023-04-29T13:22:25.438Z,22.20
2023-04-29T13:28:27.600Z,21.90
2023-04-29T13:34:29.811Z,21.20
2023-04-29T13:40:38.295Z,20.40
2023-04-29T13:46:43.071Z,20.30
2023-04-29T13:59:36.096Z,19.90
2023-04-29T14:05:16.471Z,20.20
2023-04-29T14:11:20.186Z,20.10
2023-04-29T14:17:23.300Z,19.60
2023-04-29T14:23:25.822Z,19.40
2023-04-29T14:29:28.366Z,19.20
2023-04-29T14:35:31.999Z,19.10
2023-04-29T14:41:34.775Z,19.00
2023-04-29T14:47:40.805Z,18.80
2023-04-29T14:53:43.474Z,18.60
2023-04-29T14:59:46.065Z,18.70
2023-04-29T15:05:50.207Z,18.60
2023-04-29T15:11:52.756Z,18.50
2023-04-29T15:17:54.883Z,18.30
2023-04-29T15:23:57.756Z,18.10
2023-04-29T15:30:00.219Z,17.90
2023-04-29T15:36:03.427Z,17.70
2023-04-29T15:42:06.145Z,17.50
2023-04-29T15:48:09.025Z,17.30
2023-04-29T15:54:11.923Z,17.20
2023-04-29T16:00:14.424Z,17.20
2023-04-29T16:06:17.546Z,17.00
2023-04-29T16:12:24.279Z,17.00
2023-04-29T16:18:27.552Z,16.80
2023-04-29T16:24:30.167Z,16.70
2023-04-29T16:30:32.632Z,16.50
2023-04-29T16:36:34.927Z,16.30
2023-04-29T16:42:37.219Z,16.20
2023-04-29T16:48:39.518Z,16.00
2023-04-29T16:54:42.097Z,15.80
2023-04-29T17:00:44.359Z,15.70
2023-04-29T17:06:46.984Z,15.50
2023-04-29T17:12:49.457Z,15.40
2023-04-29T17:18:51.924Z,15.20
2023-04-29T17:24:54.128Z,15.10
2023-04-29T17:31:00.216Z,15.00
2023-04-29T17:37:02.488Z,14.80
2023-04-29T17:43:04.965Z,14.60
2023-04-29T17:49:07.826Z,14.50
2023-04-29T17:55:10.850Z,14.40
2023-04-29T18:01:13.441Z,14.40
2023-04-29T18:07:15.836Z,14.30
2023-04-29T18:13:18.038Z,14.20
2023-04-29T18:19:20.626Z,14.10
2023-04-29T18:25:23.221Z,14.00
2023-04-29T18:31:26.857Z,13.80
2023-04-29T18:37:29.952Z,13.70
2023-04-29T18:43:32.497Z,13.60
2023-04-29T18:49:37.315Z,13.50
2023-04-29T18:55:40.691Z,13.40
2023-04-29T19:01:43.557Z,13.40
2023-04-29T19:07:45.934Z,13.40
2023-04-29T19:13:48.185Z,13.30
2023-04-29T19:19:50.627Z,13.20
2023-04-29T19:25:53.299Z,13.10
2023-04-29T19:31:55.582Z,13.00
2023-04-29T19:37:57.897Z,12.90
2023-04-29T19:44:00.378Z,12.80
2023-04-29T19:50:03.575Z,12.80
2023-04-29T19:56:05.928Z,12.70
2023-04-29T20:02:08.361Z,12.60
2023-04-29T20:08:11.018Z,12.50
2023-04-29T20:14:13.685Z,12.40
2023-04-29T20:20:16.130Z,12.40
2023-04-29T20:26:21.422Z,12.40
2023-04-29T20:32:23.981Z,12.40
2023-04-29T20:38:27.330Z,12.40
2023-04-29T20:44:30.502Z,12.40
2023-04-29T20:50:32.985Z,12.30
2023-04-29T20:56:35.604Z,12.10
2023-04-29T21:02:38.216Z,12.00
2023-04-29T21:08:40.506Z,11.80
2023-04-29T21:14:43.146Z,11.70
2023-04-29T21:20:46.089Z,11.60
2023-04-29T21:26:48.645Z,11.50
2023-04-29T21:32:51.058Z,11.40
2023-04-29T21:38:54.880Z,11.30
2023-04-29T21:45:00.093Z,11.20
2023-04-29T21:51:05.748Z,11.10
2023-04-29T21:57:08.435Z,11.00
2023-04-29T22:03:10.768Z,11.00
2023-04-29T22:09:13.492Z,10.90
2023-04-29T22:15:27.424Z,10.80
2023-04-29T22:21:32.057Z,10.80
2023-04-29T22:27:34.566Z,10.70
2023-04-29T22:33:36.937Z,10.60
2023-04-29T22:39:39.366Z,10.60
2023-04-29T22:45:41.664Z,10.50
2023-04-29T22:51:43.941Z,10.50
2023-04-29T22:57:46.333Z,10.50
2023-04-29T23:03:48.804Z,10.40
2023-04-29T23:09:52.115Z,10.30
2023-04-29T23:15:58.300Z,10.30
2023-04-29T23:22:01.276Z,10.30
2023-04-29T23:28:04.072Z,10.20
2023-04-29T23:34:06.562Z,10.20
2023-04-29T23:40:09.811Z,10.10
2023-04-29T23:46:12.139Z,10.20
2023-04-29T23:52:14.607Z,10.30
2023-04-29T23:58:17.578Z,10.30
